This is the latest recevied weather packets stored in our database for station/object CA2JAT-13. If no packets are shown the sender has not sent any weather packets the latest 10 day(s).
| Time | Temp. | Humidity | Pressure | Rain* | Wind** | Luminosity | Snow |
|---|---|---|---|---|---|---|---|
| 1777872841 | 8.89° C | 68% | 1019 hPa | 0 mm | - | 0 W/m² | - |
| 1777871039 | 10° C | 68% | 1018.6 hPa | 0 mm | - | 0 W/m² | - |
| 1777869237 | 10° C | 68% | 1018.9 hPa | 0 mm | - | 0 W/m² | - |
| 1777867435 | 10° C | 66% | 1019.1 hPa | 0 mm | - | 0 W/m² | - |
| 1777865632 | 10.56° C | 65% | 1019.2 hPa | 0 mm | - | 0 W/m² | - |
| 1777863828 | 11.11° C | 65% | 1019.2 hPa | 0 mm | - | 0 W/m² | - |
| 1777863509 | 11.11° C | 65% | 1019.2 hPa | 0 mm | - | 0 W/m² | - |
| 1777862607 | 11.11° C | 64% | 1019.2 hPa | 0 mm | - | 0 W/m² | - |
| 1777860804 | 11.67° C | 59% | 1018.8 hPa | 0 mm | - | 0 W/m² | - |
| 1777859002 | 12.78° C | 56% | 1018.5 hPa | 0 mm | - | 0 W/m² | - |
| 1777857198 | 13.89° C | 53% | 1018.4 hPa | 0 mm | - | 0 W/m² | - |
| 1777855395 | 14.44° C | 51% | 1018 hPa | 0 mm | - | 0 W/m² | - |
| 1777853592 | 16.11° C | 49% | 1017.2 hPa | 0 mm | - | 0 W/m² | - |
| 1777851790 | 17.78° C | 44% | 1016.5 hPa | 0 mm | - | 0 W/m² | - |
| 1777849987 | 19.44° C | 39% | 1015.8 hPa | 0 mm | - | 0 W/m² | - |
| 1777848184 | 20.56° C | 36% | 1015.1 hPa | 0 mm | - | 0 W/m² | - |
| 1777846382 | 22.78° C | 31% | 1014.3 hPa | 0 mm | - | 10 W/m² | - |
| 1777844579 | 23.89° C | 28% | 1013.6 hPa | 0 mm | - | 24 W/m² | - |
| 1777842776 | 25° C | 27% | 1013.2 hPa | 0 mm | - | 201 W/m² | - |
| 1777840973 | 25.56° C | 25% | 1013 hPa | 0 mm | - | 247 W/m² | - |
| 1777839811 | 27.22° C | 22% | 1012.8 hPa | 0 mm | - | 342 W/m² | - |
| 1777838008 | 27.22° C | 20% | 1012.8 hPa | 0 mm | - | 482 W/m² | - |
| 1777836206 | 26.67° C | 21% | 1012.9 hPa | 0 mm | - | 562 W/m² | - |
| 1777834403 | 27.78° C | 18% | 1013 hPa | 0 mm | - | 625 W/m² | - |
| 1777832600 | 28.33° C | 16% | 1013 hPa | 0 mm | - | 666 W/m² | - |
* Rain latest hour (hover to see other rain measurements)
** Current wind speed in m/s (hover to see current wind gust speed)